Time;durP1;ratioP1;P1;durP2;ratioP2;P2;SDS_P1;SDS_P2;PMS_P1;PMS_P2;Temp;Humidity;BMP_temperature;BMP_pressure;BME280_temperature;BME280_humidity;BME280_pressure;Samples;Min_cycle;Max_cycle;Signal;HPM_P1;HPM_P2
2023/07/15 00:00:03;;;;;;;0.20;0.20;;;;;;;;;;5092306;28;20123;-72
2023/07/15 00:02:37;;;;;;;0.20;0.20;;;;;;;;;;5092311;28;20486;-73
2023/07/15 00:05:04;;;;;;;0.20;0.20;;;;;;;;;;5092326;28;20066;-73
2023/07/15 00:07:29;;;;;;;0.30;0.30;;;;;;;;;;5092615;28;20067;-73
2023/07/15 00:09:55;;;;;;;0.30;0.30;;;;;;;;;;5078167;28;20056;-75
2023/07/15 00:12:20;;;;;;;0.30;0.30;;;;;;;;;;5095903;28;20463;-73
2023/07/15 00:14:46;;;;;;;0.20;0.20;;;;;;;;;;5095710;28;20028;-73
2023/07/15 00:17:12;;;;;;;0.30;0.30;;;;;;;;;;5096069;28;20023;-73
2023/07/15 00:19:39;;;;;;;0.28;0.28;;;;;;;;;;5077748;28;20031;-73
2023/07/15 00:22:05;;;;;;;0.20;0.20;;;;;;;;;;5095910;28;20028;-74
2023/07/15 00:24:31;;;;;;;0.30;0.30;;;;;;;;;;5095820;28;20490;-73
2023/07/15 00:26:58;;;;;;;0.20;0.20;;;;;;;;;;5094469;28;20040;-73
2023/07/15 00:29:25;;;;;;;0.30;0.30;;;;;;;;;;5095650;28;20043;-73
2023/07/15 00:31:51;;;;;;;0.30;0.30;;;;;;;;;;5095684;28;20043;-73
2023/07/15 00:34:16;;;;;;;0.20;0.20;;;;;;;;;;5077850;28;20462;-73
2023/07/15 00:36:42;;;;;;;0.20;0.20;;;;;;;;;;5095721;28;20063;-73
2023/07/15 00:39:09;;;;;;;0.95;0.93;;;;;;;;;;5093836;28;20024;-73
2023/07/15 00:41:35;;;;;;;0.25;0.25;;;;;;;;;;5095371;28;20071;-73
2023/07/15 00:44:03;;;;;;;0.63;0.63;;;;;;;;;;5077238;28;20036;-72
2023/07/15 00:46:45;;;;;;;0.20;0.20;;;;;;;;;;5095495;28;20032;-73
2023/07/15 00:49:11;;;;;;;0.20;0.20;;;;;;;;;;5077117;28;20035;-73
2023/07/15 00:51:38;;;;;;;0.20;0.20;;;;;;;;;;5095245;28;20024;-73
2023/07/15 00:54:03;;;;;;;0.20;0.20;;;;;;;;;;5077066;28;20119;-73
2023/07/15 00:56:30;;;;;;;0.20;0.20;;;;;;;;;;5095091;28;20039;-73
2023/07/15 00:58:56;;;;;;;0.20;0.20;;;;;;;;;;5095390;28;20024;-73
2023/07/15 01:01:23;;;;;;;0.20;0.20;;;;;;;;;;5095481;28;20123;-73
2023/07/15 01:03:48;;;;;;;0.20;0.20;;;;;;;;;;5095574;28;20120;-72
2023/07/15 01:06:14;;;;;;;0.20;0.20;;;;;;;;;;5095225;28;20036;-74
2023/07/15 01:08:41;;;;;;;0.20;0.20;;;;;;;;;;5077162;28;20154;-72
2023/07/15 01:11:08;;;;;;;0.30;0.30;;;;;;;;;;5076247;28;20028;-73
2023/07/15 01:13:34;;;;;;;0.20;0.20;;;;;;;;;;5095102;28;20111;-73
2023/07/15 01:15:59;;;;;;;0.20;0.20;;;;;;;;;;5095122;28;20079;-73
2023/07/15 01:18:25;;;;;;;0.20;0.20;;;;;;;;;;5076456;28;20035;-72
2023/07/15 01:20:50;;;;;;;0.20;0.20;;;;;;;;;;5094933;28;20360;-72
2023/07/15 01:23:16;;;;;;;0.20;0.20;;;;;;;;;;5093691;28;20054;-72
2023/07/15 01:25:43;;;;;;;0.20;0.20;;;;;;;;;;5094537;28;20051;-72
2023/07/15 01:28:09;;;;;;;0.20;0.20;;;;;;;;;;5076944;28;20050;-72
2023/07/15 01:30:35;;;;;;;0.22;0.22;;;;;;;;;;5077282;28;20386;-72
2023/07/15 01:33:00;;;;;;;0.20;0.20;;;;;;;;;;5095015;28;20032;-72
2023/07/15 01:35:26;;;;;;;0.20;0.20;;;;;;;;;;5076596;28;20040;-72
2023/07/15 01:37:52;;;;;;;0.20;0.20;;;;;;;;;;5076076;28;20032;-72
2023/07/15 01:40:17;;;;;;;0.20;0.20;;;;;;;;;;5094475;28;20110;-72
2023/07/15 01:42:43;;;;;;;0.20;0.20;;;;;;;;;;5094490;28;20035;-72
2023/07/15 01:45:11;;;;;;;0.28;0.28;;;;;;;;;;5094763;28;20028;-72
2023/07/15 01:47:37;;;;;;;0.30;0.30;;;;;;;;;;5094604;28;20032;-72
2023/07/15 01:50:05;;;;;;;0.20;0.20;;;;;;;;;;5094345;28;20028;-71
2023/07/15 01:52:32;;;;;;;0.20;0.20;;;;;;;;;;5093799;28;20036;-72
2023/07/15 01:54:58;;;;;;;0.30;0.30;;;;;;;;;;5076222;28;20397;-72
2023/07/15 01:57:26;;;;;;;0.20;0.20;;;;;;;;;;5094580;28;20027;-72
2023/07/15 01:59:57;;;;;;;0.30;0.30;;;;;;;;;;5076338;28;20089;-72
2023/07/15 02:02:26;;;;;;;0.20;0.20;;;;;;;;;;5094268;28;20044;-72
2023/07/15 02:04:53;;;;;;;0.20;0.20;;;;;;;;;;5094268;28;20486;-72
2023/07/15 02:07:19;;;;;;;0.20;0.20;;;;;;;;;;5094040;28;20043;-72
2023/07/15 02:09:45;;;;;;;0.20;0.20;;;;;;;;;;5075996;28;20509;-72
2023/07/15 02:12:10;;;;;;;0.20;0.20;;;;;;;;;;5092815;28;20505;-72
2023/07/15 02:14:36;;;;;;;0.20;0.20;;;;;;;;;;5075612;28;20028;-72
2023/07/15 02:17:05;;;;;;;0.20;0.20;;;;;;;;;;5094205;28;20123;-72
2023/07/15 02:19:31;;;;;;;0.30;0.30;;;;;;;;;;5092782;28;20020;-72
2023/07/15 02:21:57;;;;;;;0.20;0.20;;;;;;;;;;5093753;28;20040;-72
2023/07/15 02:24:23;;;;;;;0.20;0.20;;;;;;;;;;5094035;28;20039;-72
2023/07/15 02:26:49;;;;;;;0.20;0.20;;;;;;;;;;5094259;28;20082;-72
2023/07/15 02:29:14;;;;;;;0.20;0.20;;;;;;;;;;5093424;28;20040;-73
2023/07/15 02:31:41;;;;;;;0.20;0.20;;;;;;;;;;5093572;28;20028;-71
2023/07/15 02:34:07;;;;;;;0.20;0.20;;;;;;;;;;5093819;28;20031;-72
2023/07/15 02:36:33;;;;;;;0.20;0.20;;;;;;;;;;5075712;28;20486;-72
2023/07/15 02:38:59;;;;;;;0.20;0.20;;;;;;;;;;5093678;28;20565;-72
2023/07/15 02:41:24;;;;;;;0.20;0.20;;;;;;;;;;5093563;28;20118;-73
2023/07/15 02:43:50;;;;;;;0.20;0.20;;;;;;;;;;5075460;28;20047;-73
2023/07/15 02:46:15;;;;;;;0.30;0.30;;;;;;;;;;5093461;28;20063;-72
2023/07/15 02:48:41;;;;;;;0.20;0.20;;;;;;;;;;5093573;28;20111;-71
2023/07/15 02:51:06;;;;;;;0.30;0.30;;;;;;;;;;5092062;28;20039;-72
2023/07/15 02:53:32;;;;;;;0.20;0.20;;;;;;;;;;5093290;28;20038;-72
2023/07/15 02:55:57;;;;;;;0.20;0.20;;;;;;;;;;5057042;28;20028;-72
2023/07/15 02:58:23;;;;;;;0.20;0.20;;;;;;;;;;5093603;28;20028;-72
2023/07/15 03:00:50;;;;;;;0.20;0.20;;;;;;;;;;5092246;28;20479;-72
2023/07/15 03:03:16;;;;;;;0.10;0.10;;;;;;;;;;5088909;28;20028;-73
2023/07/15 03:05:45;;;;;;;0.20;0.20;;;;;;;;;;5071419;28;20032;-73
2023/07/15 03:08:10;;;;;;;0.20;0.20;;;;;;;;;;5087981;28;20028;-72
2023/07/15 03:10:36;;;;;;;0.20;0.20;;;;;;;;;;5089053;28;20032;-72
2023/07/15 03:13:01;;;;;;;0.13;0.13;;;;;;;;;;5071327;28;20028;-73
2023/07/15 03:15:27;;;;;;;39.45;10.85;;;;;;;;;;5072072;28;20051;-72
2023/07/15 03:17:52;;;;;;;0.20;0.20;;;;;;;;;;5089761;28;20039;-72
2023/07/15 03:20:21;;;;;;;0.25;0.25;;;;;;;;;;5088728;28;20074;-72
2023/07/15 03:22:50;;;;;;;0.20;0.20;;;;;;;;;;5088713;28;20035;-73
2023/07/15 03:25:16;;;;;;;0.20;0.20;;;;;;;;;;5089020;28;20077;-72
2023/07/15 03:27:42;;;;;;;0.20;0.20;;;;;;;;;;5089241;28;20050;-73
2023/07/15 03:30:08;;;;;;;0.20;0.20;;;;;;;;;;5089022;28;20036;-73
2023/07/15 03:32:37;;;;;;;0.20;0.20;;;;;;;;;;5088651;28;20035;-73
2023/07/15 03:35:03;;;;;;;0.20;0.20;;;;;;;;;;5088736;28;20043;-72
2023/07/15 03:37:30;;;;;;;0.20;0.20;;;;;;;;;;5086554;28;20028;-72
2023/07/15 03:39:55;;;;;;;0.20;0.20;;;;;;;;;;5089045;28;20042;-72
2023/07/15 03:42:21;;;;;;;0.20;0.20;;;;;;;;;;5088433;28;20043;-72
2023/07/15 03:44:47;;;;;;;0.20;0.20;;;;;;;;;;5088307;28;20035;-73
2023/07/15 03:47:12;;;;;;;0.20;0.20;;;;;;;;;;5088389;28;20024;-73
2023/07/15 03:49:37;;;;;;;0.20;0.20;;;;;;;;;;5087543;28;20073;-73
2023/07/15 03:52:03;;;;;;;0.20;0.20;;;;;;;;;;5088269;28;20073;-73
2023/07/15 03:54:29;;;;;;;0.20;0.20;;;;;;;;;;5088626;28;20046;-72
2023/07/15 03:56:54;;;;;;;0.25;0.25;;;;;;;;;;5088682;28;20475;-73
2023/07/15 03:59:20;;;;;;;0.15;0.15;;;;;;;;;;5088345;28;20043;-73
2023/07/15 04:01:45;;;;;;;0.20;0.20;;;;;;;;;;5085624;28;20035;-72
2023/07/15 04:04:11;;;;;;;0.20;0.20;;;;;;;;;;5088668;28;20046;-73
2023/07/15 04:06:37;;;;;;;0.20;0.20;;;;;;;;;;5087617;28;20497;-72
2023/07/15 04:09:05;;;;;;;0.20;0.20;;;;;;;;;;5088197;28;20040;-72
2023/07/15 04:11:31;;;;;;;0.20;0.20;;;;;;;;;;5086149;28;20027;-72
2023/07/15 04:13:56;;;;;;;0.20;0.20;;;;;;;;;;5088447;28;20040;-73
2023/07/15 04:16:22;;;;;;;0.20;0.20;;;;;;;;;;5088270;28;20043;-73
2023/07/15 04:18:47;;;;;;;0.20;0.20;;;;;;;;;;5087676;28;20079;-73
2023/07/15 04:21:13;;;;;;;0.20;0.20;;;;;;;;;;5087783;28;20122;-73
2023/07/15 04:23:38;;;;;;;1.10;1.10;;;;;;;;;;5086415;28;20408;-73
2023/07/15 04:26:03;;;;;;;0.20;0.20;;;;;;;;;;5088756;28;20047;-73
2023/07/15 04:28:29;;;;;;;0.20;0.20;;;;;;;;;;5088382;28;20545;-73
2023/07/15 04:30:54;;;;;;;0.20;0.20;;;;;;;;;;5088444;28;20039;-72
2023/07/15 04:33:22;;;;;;;0.20;0.20;;;;;;;;;;5088087;28;20081;-72
2023/07/15 04:35:48;;;;;;;0.20;0.20;;;;;;;;;;5086583;28;20028;-72
2023/07/15 04:38:13;;;;;;;0.20;0.20;;;;;;;;;;5088197;28;20032;-72
2023/07/15 04:40:39;;;;;;;0.20;0.20;;;;;;;;;;5087272;28;20035;-73
2023/07/15 04:43:04;;;;;;;0.20;0.20;;;;;;;;;;5088061;28;20036;-73
2023/07/15 04:45:31;;;;;;;0.30;0.30;;;;;;;;;;5087707;28;20063;-74
2023/07/15 04:47:57;;;;;;;0.20;0.20;;;;;;;;;;5088276;28;20028;-74
2023/07/15 04:50:23;;;;;;;0.25;0.25;;;;;;;;;;5087439;28;20397;-73
2023/07/15 04:52:48;;;;;;;0.20;0.20;;;;;;;;;;5086944;28;20474;-73
2023/07/15 04:55:14;;;;;;;0.20;0.20;;;;;;;;;;5091615;28;20032;-73
2023/07/15 04:57:40;;;;;;;0.20;0.20;;;;;;;;;;5091818;28;20494;-72
2023/07/15 05:00:10;;;;;;;0.20;0.20;;;;;;;;;;5085519;28;20205;-73
2023/07/15 05:02:36;;;;;;;0.20;0.20;;;;;;;;;;5089955;28;20040;-73
2023/07/15 05:05:02;;;;;;;0.20;0.20;;;;;;;;;;5091268;28;20092;-73
2023/07/15 05:07:27;;;;;;;0.20;0.20;;;;;;;;;;5089945;28;20568;-73
2023/07/15 05:09:54;;;;;;;0.20;0.20;;;;;;;;;;5091783;28;20030;-73
2023/07/15 05:12:19;;;;;;;0.20;0.20;;;;;;;;;;5090064;28;20071;-74
2023/07/15 05:14:44;;;;;;;0.30;0.30;;;;;;;;;;5090755;28;20060;-74
2023/07/15 05:17:10;;;;;;;0.30;0.30;;;;;;;;;;5089894;28;20443;-73
2023/07/15 05:19:35;;;;;;;0.20;0.20;;;;;;;;;;5091288;28;20074;-73
2023/07/15 05:22:01;;;;;;;0.25;0.25;;;;;;;;;;5090942;28;20037;-75
2023/07/15 05:24:28;;;;;;;0.20;0.20;;;;;;;;;;5090534;28;20437;-74
2023/07/15 05:26:54;;;;;;;0.22;0.22;;;;;;;;;;5091128;28;20123;-72
2023/07/15 05:29:20;;;;;;;15.45;14.48;;;;;;;;;;5090915;28;20538;-74
2023/07/15 05:31:46;;;;;;;0.30;0.30;;;;;;;;;;5090865;28;20115;-74
2023/07/15 05:34:12;;;;;;;0.30;0.30;;;;;;;;;;5090786;28;20028;-72
2023/07/15 05:36:38;;;;;;;0.20;0.20;;;;;;;;;;5090515;28;20031;-72
2023/07/15 05:39:04;;;;;;;0.65;0.65;;;;;;;;;;5089459;28;20438;-73
2023/07/15 05:41:30;;;;;;;0.20;0.20;;;;;;;;;;5090759;28;20410;-72
2023/07/15 05:43:55;;;;;;;0.30;0.30;;;;;;;;;;5072793;28;20090;-72
2023/07/15 05:46:21;;;;;;;0.28;0.28;;;;;;;;;;5089267;28;20429;-73
2023/07/15 05:48:46;;;;;;;0.45;0.45;;;;;;;;;;5072018;28;20077;-73
2023/07/15 05:51:12;;;;;;;0.30;0.30;;;;;;;;;;5090518;28;20032;-72
2023/07/15 05:53:38;;;;;;;0.98;0.85;;;;;;;;;;5090787;28;20028;-73
2023/07/15 05:56:03;;;;;;;0.40;0.40;;;;;;;;;;5090294;28;20020;-74
2023/07/15 05:58:29;;;;;;;0.50;0.50;;;;;;;;;;5071279;28;20048;-72
2023/07/15 06:00:57;;;;;;;0.35;0.35;;;;;;;;;;5086497;28;20035;-74
2023/07/15 06:03:25;;;;;;;0.30;0.30;;;;;;;;;;5089082;28;20388;-72
2023/07/15 06:05:51;;;;;;;0.30;0.30;;;;;;;;;;5088124;28;20466;-72
2023/07/15 06:08:17;;;;;;;0.38;0.38;;;;;;;;;;5090019;28;20028;-72
2023/07/15 06:10:43;;;;;;;0.30;0.30;;;;;;;;;;5088795;28;20467;-73
2023/07/15 06:13:09;;;;;;;0.30;0.30;;;;;;;;;;5089197;28;20024;-72
2023/07/15 06:15:36;;;;;;;2.85;1.17;;;;;;;;;;5079063;28;20115;-73
2023/07/15 06:18:02;;;;;;;0.30;0.30;;;;;;;;;;5086042;28;20031;-73
2023/07/15 06:20:27;;;;;;;0.75;0.75;;;;;;;;;;5089520;28;20036;-74
2023/07/15 06:22:53;;;;;;;0.40;0.40;;;;;;;;;;5088706;28;20028;-73
2023/07/15 06:25:18;;;;;;;0.40;0.40;;;;;;;;;;5090047;28;20028;-72
2023/07/15 06:27:44;;;;;;;0.30;0.30;;;;;;;;;;5089375;28;20043;-72
2023/07/15 06:30:10;;;;;;;6.78;1.77;;;;;;;;;;5072409;28;20103;-72
2023/07/15 06:32:36;;;;;;;0.75;0.65;;;;;;;;;;5089927;28;20035;-73
2023/07/15 06:35:02;;;;;;;2.03;1.58;;;;;;;;;;5071190;28;20291;-72
2023/07/15 06:37:28;;;;;;;0.40;0.40;;;;;;;;;;5089082;28;20032;-73
2023/07/15 06:39:54;;;;;;;0.38;0.38;;;;;;;;;;5089108;28;20176;-73
2023/07/15 06:42:19;;;;;;;2.15;1.50;;;;;;;;;;5087206;28;20036;-72
2023/07/15 06:44:45;;;;;;;11.15;2.45;;;;;;;;;;5089259;28;20036;-74
2023/07/15 06:47:10;;;;;;;1.38;1.33;;;;;;;;;;5088073;28;20177;-75
2023/07/15 06:49:36;;;;;;;0.32;0.32;;;;;;;;;;5090065;28;20156;-75
2023/07/15 06:52:02;;;;;;;0.22;0.22;;;;;;;;;;5089736;28;20123;-74
2023/07/15 06:54:29;;;;;;;0.75;0.65;;;;;;;;;;5082591;28;20025;-72
2023/07/15 06:56:54;;;;;;;0.75;0.75;;;;;;;;;;5079051;28;20135;-74
2023/07/15 06:59:20;;;;;;;0.40;0.40;;;;;;;;;;5079670;28;20111;-73
2023/07/15 07:01:46;;;;;;;0.40;0.40;;;;;;;;;;5069191;28;20032;-74
2023/07/15 07:04:11;;;;;;;7.07;2.75;;;;;;;;;;5069497;28;20474;-73
2023/07/15 07:06:37;;;;;;;0.40;0.40;;;;;;;;;;5081912;28;20040;-73
2023/07/15 07:09:03;;;;;;;0.50;0.50;;;;;;;;;;5084719;28;20039;-72
2023/07/15 07:11:28;;;;;;;0.43;0.43;;;;;;;;;;5087955;28;20812;-73
2023/07/15 07:13:54;;;;;;;0.30;0.30;;;;;;;;;;5087955;28;20046;-72
2023/07/15 07:16:19;;;;;;;3.85;1.55;;;;;;;;;;5088654;28;20060;-72
2023/07/15 07:18:45;;;;;;;0.38;0.38;;;;;;;;;;5087414;28;20039;-74
2023/07/15 07:21:11;;;;;;;4.57;0.85;;;;;;;;;;5083208;28;20089;-74
2023/07/15 07:23:37;;;;;;;0.40;0.40;;;;;;;;;;5088250;28;20036;-73
2023/07/15 07:26:02;;;;;;;0.30;0.30;;;;;;;;;;5089328;28;20040;-71
2023/07/15 07:28:40;;;;;;;0.30;0.30;;;;;;;;;;5088616;28;20463;-73
2023/07/15 07:31:06;;;;;;;0.40;0.40;;;;;;;;;;5082496;28;20032;-73
2023/07/15 07:33:32;;;;;;;5.78;1.02;;;;;;;;;;5085508;28;20036;-73
2023/07/15 07:35:57;;;;;;;1.77;1.55;;;;;;;;;;5081020;28;20467;-74
2023/07/15 07:38:23;;;;;;;0.30;0.30;;;;;;;;;;5078830;28;20035;-72
2023/07/15 07:40:48;;;;;;;1.27;1.13;;;;;;;;;;5080572;28;20086;-73
2023/07/15 07:43:14;;;;;;;0.73;0.70;;;;;;;;;;5080139;28;20547;-72
2023/07/15 07:45:39;;;;;;;0.60;0.60;;;;;;;;;;5068788;28;20481;-72
2023/07/15 07:48:05;;;;;;;6.82;2.55;;;;;;;;;;5083998;28;20036;-74
2023/07/15 07:50:31;;;;;;;0.95;0.80;;;;;;;;;;5086991;28;20035;-73
2023/07/15 07:52:56;;;;;;;0.30;0.30;;;;;;;;;;5075814;28;20509;-73
2023/07/15 07:55:22;;;;;;;0.40;0.40;;;;;;;;;;5043598;28;20020;-73
2023/07/15 07:57:47;;;;;;;4.22;1.65;;;;;;;;;;5077289;28;20085;-72
2023/07/15 08:00:14;;;;;;;0.60;0.60;;;;;;;;;;5081648;28;20024;-72
2023/07/15 08:02:39;;;;;;;1.00;0.93;;;;;;;;;;5088909;28;20115;-73
2023/07/15 08:05:05;;;;;;;6.15;1.75;;;;;;;;;;5085637;28;20111;-78
2023/07/15 08:07:31;;;;;;;13.27;3.85;;;;;;;;;;5064185;28;20040;-86
2023/07/15 08:09:56;;;;;;;1.95;1.65;;;;;;;;;;5070140;28;20032;-81
2023/07/15 08:12:22;;;;;;;9.57;3.05;;;;;;;;;;5090607;28;20028;-84
2023/07/15 08:14:48;;;;;;;0.70;0.70;;;;;;;;;;5080209;28;20019;-82
2023/07/15 08:17:13;;;;;;;0.38;0.38;;;;;;;;;;5096483;28;20031;-83
2023/07/15 08:19:39;;;;;;;0.43;0.43;;;;;;;;;;5084987;28;20036;-83
2023/07/15 08:22:05;;;;;;;0.40;0.40;;;;;;;;;;5092085;28;20028;-78
2023/07/15 08:24:30;;;;;;;2.58;1.23;;;;;;;;;;5082498;28;20039;-84
2023/07/15 08:26:56;;;;;;;0.50;0.50;;;;;;;;;;5089344;28;20040;-79
2023/07/15 08:29:22;;;;;;;2.95;2.15;;;;;;;;;;5089489;28;20028;-77
2023/07/15 08:31:48;;;;;;;0.98;0.90;;;;;;;;;;5092133;28;20470;-78
2023/07/15 08:34:14;;;;;;;2.72;1.02;;;;;;;;;;5073562;28;20185;-77
2023/07/15 08:36:39;;;;;;;0.45;0.45;;;;;;;;;;5087662;28;20119;-78
2023/07/15 08:39:05;;;;;;;3.95;2.55;;;;;;;;;;5084157;28;20040;-74
2023/07/15 08:41:30;;;;;;;0.40;0.40;;;;;;;;;;5091703;28;20027;-75
2023/07/15 08:43:56;;;;;;;0.30;0.30;;;;;;;;;;5055486;28;20401;-77
2023/07/15 08:46:29;;;;;;;3.03;1.38;;;;;;;;;;5091223;28;20111;-73
2023/07/15 08:48:55;;;;;;;2.83;1.75;;;;;;;;;;5091364;28;20039;-72
2023/07/15 08:51:22;;;;;;;7.93;3.00;;;;;;;;;;5089759;28;20082;-73
2023/07/15 08:53:47;;;;;;;3.72;2.13;;;;;;;;;;5074714;28;20031;-73
2023/07/15 08:56:13;;;;;;;0.50;0.50;;;;;;;;;;5084172;28;20040;-74
2023/07/15 08:58:38;;;;;;;1.23;1.13;;;;;;;;;;5090383;28;20125;-73
2023/07/15 09:01:04;;;;;;;0.32;0.32;;;;;;;;;;5090370;28;20143;-73
2023/07/15 09:03:29;;;;;;;1.40;1.02;;;;;;;;;;5083866;28;20025;-73
2023/07/15 09:05:55;;;;;;;5.47;1.85;;;;;;;;;;5090923;28;20039;-73
2023/07/15 09:08:20;;;;;;;0.40;0.40;;;;;;;;;;5091631;28;20024;-73
2023/07/15 09:10:52;;;;;;;2.60;1.60;;;;;;;;;;5088770;28;20034;-73
2023/07/15 09:13:32;;;;;;;7.85;1.58;;;;;;;;;;5089522;28;20482;-74
2023/07/15 09:15:57;;;;;;;1.63;1.50;;;;;;;;;;5088972;28;20035;-74
2023/07/15 09:18:23;;;;;;;0.80;0.63;;;;;;;;;;5089142;28;20029;-73
2023/07/15 09:20:49;;;;;;;2.78;1.90;;;;;;;;;;5089419;28;20107;-73
2023/07/15 09:23:15;;;;;;;7.45;1.40;;;;;;;;;;5089505;28;20107;-72
2023/07/15 09:25:52;;;;;;;5.72;1.55;;;;;;;;;;5090381;28;20039;-73
2023/07/15 09:28:18;;;;;;;3.15;1.48;;;;;;;;;;5090970;28;20028;-74
2023/07/15 09:30:43;;;;;;;13.00;1.83;;;;;;;;;;5090765;28;20028;-73
2023/07/15 09:33:25;;;;;;;6.85;1.10;;;;;;;;;;5090607;28;20032;-73
2023/07/15 09:35:51;;;;;;;9.40;2.35;;;;;;;;;;5090891;28;20056;-73
2023/07/15 09:38:19;;;;;;;3.22;2.97;;;;;;;;;;5090806;28;20028;-73
2023/07/15 09:40:45;;;;;;;0.52;0.52;;;;;;;;;;5089213;28;20024;-73
2023/07/15 09:43:11;;;;;;;0.93;0.70;;;;;;;;;;5090964;28;20028;-73
2023/07/15 09:45:38;;;;;;;0.47;0.47;;;;;;;;;;5090598;28;20043;-73
2023/07/15 09:48:04;;;;;;;3.25;2.45;;;;;;;;;;5090697;28;20490;-73
2023/07/15 09:50:31;;;;;;;0.57;0.57;;;;;;;;;;5090410;28;20395;-73
2023/07/15 09:52:57;;;;;;;0.88;0.85;;;;;;;;;;5090682;28;20036;-73
2023/07/15 09:55:23;;;;;;;4.13;1.35;;;;;;;;;;5090587;28;20070;-73
2023/07/15 09:57:51;;;;;;;0.65;0.65;;;;;;;;;;5072574;28;20056;-74
2023/07/15 10:00:18;;;;;;;0.73;0.73;;;;;;;;;;5090486;28;20059;-73
2023/07/15 10:02:46;;;;;;;7.43;2.80;;;;;;;;;;5090082;28;20062;-73
2023/07/15 10:05:14;;;;;;;3.22;1.75;;;;;;;;;;5089815;28;20046;-73
2023/07/15 10:07:43;;;;;;;0.60;0.60;;;;;;;;;;5090274;28;20034;-73
2023/07/15 10:10:09;;;;;;;5.78;3.20;;;;;;;;;;5090032;28;20461;-73
2023/07/15 10:12:34;;;;;;;5.38;2.10;;;;;;;;;;5089899;28;20102;-73
2023/07/15 10:15:00;;;;;;;6.60;2.17;;;;;;;;;;5090198;28;20367;-73
2023/07/15 10:17:32;;;;;;;0.57;0.57;;;;;;;;;;5090284;28;20762;-73
2023/07/15 10:20:10;;;;;;;0.40;0.40;;;;;;;;;;5089897;28;20051;-74
2023/07/15 10:22:36;;;;;;;2.28;1.35;;;;;;;;;;5071669;28;20036;-73
2023/07/15 10:25:03;;;;;;;2.80;1.38;;;;;;;;;;5089602;28;20092;-74
2023/07/15 10:27:29;;;;;;;3.42;1.95;;;;;;;;;;5089786;28;20039;-75
2023/07/15 10:30:26;;;;;;;3.13;1.70;;;;;;;;;;5090353;28;20034;-73
2023/07/15 10:33:01;;;;;;;7.72;2.38;;;;;;;;;;5089074;28;20082;-73
2023/07/15 10:35:46;;;;;;;5.20;3.00;;;;;;;;;;5088781;28;20027;-74
2023/07/15 10:38:23;;;;;;;4.45;2.95;;;;;;;;;;5089321;28;20097;-74
2023/07/15 10:40:54;;;;;;;0.40;0.38;;;;;;;;;;5090030;28;20081;-74
2023/07/15 10:43:24;;;;;;;0.30;0.30;;;;;;;;;;5089535;28;20479;-74
2023/07/15 10:45:53;;;;;;;1.95;0.80;;;;;;;;;;5089684;28;20068;-74
2023/07/15 10:48:19;;;;;;;13.60;4.75;;;;;;;;;;5089665;28;20035;-74
2023/07/15 10:50:50;;;;;;;11.50;3.63;;;;;;;;;;5088743;28;20040;-74
2023/07/15 10:53:22;;;;;;;0.70;0.70;;;;;;;;;;5072093;28;20036;-74
2023/07/15 10:56:09;;;;;;;0.45;0.45;;;;;;;;;;5089729;28;20028;-74
2023/07/15 10:58:36;;;;;;;10.02;2.17;;;;;;;;;;5089177;28;20043;-74
2023/07/15 11:01:05;;;;;;;9.80;3.65;;;;;;;;;;5089780;28;20374;-73
2023/07/15 11:03:31;;;;;;;1.33;1.13;;;;;;;;;;5089445;28;20055;-74
2023/07/15 11:05:58;;;;;;;8.98;3.13;;;;;;;;;;5089405;28;20039;-74
2023/07/15 11:08:24;;;;;;;1.75;1.52;;;;;;;;;;5089217;28;20060;-74
2023/07/15 11:10:49;;;;;;;2.08;1.67;;;;;;;;;;5089898;28;20101;-74
2023/07/15 11:13:16;;;;;;;0.50;0.50;;;;;;;;;;5089076;28;21471;-74
2023/07/15 11:15:45;;;;;;;7.07;2.95;;;;;;;;;;5090902;28;20024;-74
2023/07/15 11:18:15;;;;;;;4.90;2.35;;;;;;;;;;5088858;28;20043;-73
2023/07/15 11:20:41;;;;;;;18.30;4.10;;;;;;;;;;5089206;28;20031;-73
2023/07/15 11:23:06;;;;;;;0.65;0.60;;;;;;;;;;5089330;28;20112;-72
2023/07/15 11:25:32;;;;;;;3.33;1.73;;;;;;;;;;5088691;28;20497;-72
2023/07/15 11:27:59;;;;;;;1.30;1.20;;;;;;;;;;5089112;28;20424;-73
2023/07/15 11:30:26;;;;;;;6.93;1.15;;;;;;;;;;5088566;28;20399;-72
2023/07/15 11:32:57;;;;;;;0.75;0.70;;;;;;;;;;5089005;28;20048;-72
2023/07/15 11:35:23;;;;;;;2.65;1.77;;;;;;;;;;5088520;28;20360;-73
2023/07/15 11:37:48;;;;;;;0.93;0.93;;;;;;;;;;5089042;28;20032;-73
2023/07/15 11:40:17;;;;;;;4.32;2.28;;;;;;;;;;5088531;28;20120;-73
2023/07/15 11:42:43;;;;;;;2.05;1.65;;;;;;;;;;5088747;28;20043;-73
2023/07/15 11:45:08;;;;;;;8.65;2.13;;;;;;;;;;5070435;28;20040;-74
2023/07/15 11:47:35;;;;;;;1.38;1.13;;;;;;;;;;5070624;28;20473;-74
2023/07/15 11:50:01;;;;;;;0.45;0.45;;;;;;;;;;5088939;28;20024;-73
2023/07/15 11:52:26;;;;;;;13.70;2.55;;;;;;;;;;5088428;28;20028;-74
2023/07/15 11:54:53;;;;;;;0.60;0.60;;;;;;;;;;5088678;28;20047;-73
2023/07/15 11:57:28;;;;;;;1.77;1.67;;;;;;;;;;5088686;28;20441;-74
2023/07/15 11:59:53;;;;;;;5.78;2.72;;;;;;;;;;5088162;28;20129;-73
2023/07/15 12:02:20;;;;;;;3.67;2.47;;;;;;;;;;5089557;28;20040;-73
2023/07/15 12:04:45;;;;;;;2.00;1.50;;;;;;;;;;5071639;28;20034;-73
2023/07/15 12:07:11;;;;;;;6.20;2.92;;;;;;;;;;5091720;28;20028;-72
2023/07/15 12:09:36;;;;;;;0.88;0.88;;;;;;;;;;5091476;28;20053;-72
2023/07/15 12:12:02;;;;;;;2.03;1.30;;;;;;;;;;5092044;28;20114;-72
2023/07/15 12:14:31;;;;;;;3.33;1.67;;;;;;;;;;5091125;28;20436;-73
2023/07/15 12:16:59;;;;;;;5.00;2.25;;;;;;;;;;5091600;28;20356;-73
2023/07/15 12:19:25;;;;;;;1.40;1.27;;;;;;;;;;5091363;28;20040;-74
2023/07/15 12:21:52;;;;;;;10.68;3.08;;;;;;;;;;5091725;28;20036;-74
2023/07/15 12:24:17;;;;;;;2.20;1.40;;;;;;;;;;5091728;28;20475;-73
2023/07/15 12:26:43;;;;;;;1.17;1.08;;;;;;;;;;5091662;28;20039;-74
2023/07/15 12:29:09;;;;;;;0.85;0.85;;;;;;;;;;5092049;28;20116;-72
2023/07/15 12:31:34;;;;;;;1.35;1.20;;;;;;;;;;5092199;28;20436;-73
2023/07/15 12:34:00;;;;;;;1.23;1.13;;;;;;;;;;5091680;28;20111;-73
2023/07/15 12:36:26;;;;;;;8.30;2.80;;;;;;;;;;5091752;28;20028;-72
2023/07/15 12:38:51;;;;;;;4.55;4.25;;;;;;;;;;5091568;28;20047;-72
2023/07/15 12:41:17;;;;;;;2.47;1.35;;;;;;;;;;5073946;28;20032;-72
2023/07/15 12:43:43;;;;;;;5.90;1.73;;;;;;;;;;5091431;28;20465;-72
2023/07/15 12:46:08;;;;;;;0.73;0.70;;;;;;;;;;5091660;28;20063;-72
2023/07/15 12:48:34;;;;;;;1.13;0.88;;;;;;;;;;5091221;28;20082;-73
2023/07/15 12:51:00;;;;;;;0.88;0.82;;;;;;;;;;5091298;28;20035;-72
2023/07/15 12:53:25;;;;;;;6.45;1.52;;;;;;;;;;5091383;28;20482;-72
2023/07/15 12:55:53;;;;;;;0.77;0.68;;;;;;;;;;5091177;28;20036;-72
2023/07/15 12:58:19;;;;;;;1.65;0.82;;;;;;;;;;5091291;28;20047;-73
2023/07/15 13:00:45;;;;;;;1.52;1.42;;;;;;;;;;5091043;28;20032;-73
2023/07/15 13:03:10;;;;;;;1.00;0.98;;;;;;;;;;5090372;28;20071;-72
2023/07/15 13:05:36;;;;;;;3.50;1.33;;;;;;;;;;5088719;28;20131;-72
2023/07/15 13:08:02;;;;;;;11.68;3.35;;;;;;;;;;5088045;28;20063;-72
2023/07/15 13:10:29;;;;;;;0.73;0.73;;;;;;;;;;5087397;28;20427;-73
2023/07/15 13:12:55;;;;;;;0.75;0.75;;;;;;;;;;5088944;28;20499;-73
2023/07/15 13:15:20;;;;;;;2.15;1.75;;;;;;;;;;5088454;28;20032;-73
2023/07/15 13:17:46;;;;;;;4.43;1.80;;;;;;;;;;5089266;28;20252;-73
2023/07/15 13:20:12;;;;;;;6.43;2.53;;;;;;;;;;5089084;28;20043;-72
2023/07/15 13:22:38;;;;;;;0.43;0.43;;;;;;;;;;5088671;28;20115;-72
2023/07/15 13:25:04;;;;;;;3.95;3.58;;;;;;;;;;5090797;28;20126;-73
2023/07/15 13:27:30;;;;;;;5.10;2.20;;;;;;;;;;5090764;28;20031;-73
2023/07/15 13:29:55;;;;;;;2.60;1.58;;;;;;;;;;5090659;28;20092;-73
2023/07/15 13:32:21;;;;;;;1.75;1.63;;;;;;;;;;5090842;28;20024;-73
2023/07/15 13:34:46;;;;;;;0.60;0.60;;;;;;;;;;5090486;28;20406;-72
2023/07/15 13:37:12;;;;;;;0.40;0.40;;;;;;;;;;5090627;28;20024;-72
2023/07/15 13:39:39;;;;;;;0.90;0.90;;;;;;;;;;5090318;28;20115;-72
2023/07/15 13:42:06;;;;;;;0.57;0.57;;;;;;;;;;5072691;28;20089;-73
2023/07/15 13:44:31;;;;;;;0.60;0.60;;;;;;;;;;5090538;28;20093;-72
2023/07/15 13:46:57;;;;;;;2.38;1.88;;;;;;;;;;5090738;28;20030;-72
2023/07/15 13:49:24;;;;;;;3.53;1.60;;;;;;;;;;5072519;28;20028;-72
2023/07/15 13:51:50;;;;;;;0.85;0.80;;;;;;;;;;5090279;28;20031;-72
2023/07/15 13:54:15;;;;;;;2.92;1.20;;;;;;;;;;5090521;28;20043;-72
2023/07/15 13:56:41;;;;;;;1.52;1.05;;;;;;;;;;5089884;28;20382;-72
2023/07/15 13:59:06;;;;;;;0.63;0.63;;;;;;;;;;5090535;28;20032;-72
2023/07/15 14:01:32;;;;;;;0.60;0.60;;;;;;;;;;5090105;28;20086;-72
2023/07/15 14:03:57;;;;;;;2.75;1.35;;;;;;;;;;5072102;28;20383;-73
2023/07/15 14:06:23;;;;;;;1.73;1.35;;;;;;;;;;5089744;28;20028;-72
2023/07/15 14:08:48;;;;;;;1.45;1.30;;;;;;;;;;5090090;28;20036;-72
2023/07/15 14:11:13;;;;;;;3.90;2.70;;;;;;;;;;5090381;28;20039;-72
2023/07/15 14:13:39;;;;;;;1.13;1.10;;;;;;;;;;5090094;28;20036;-73
2023/07/15 14:16:04;;;;;;;2.85;1.48;;;;;;;;;;5090292;28;20072;-72
2023/07/15 14:18:30;;;;;;;2.13;1.55;;;;;;;;;;5089945;28;20109;-72
2023/07/15 14:20:55;;;;;;;0.65;0.65;;;;;;;;;;5072062;28;20123;-72
2023/07/15 14:23:21;;;;;;;5.93;2.70;;;;;;;;;;5089881;28;20335;-72
2023/07/15 14:25:46;;;;;;;0.77;0.77;;;;;;;;;;5088998;28;20036;-73
2023/07/15 14:28:12;;;;;;;1.08;1.08;;;;;;;;;;5089978;28;20024;-73
2023/07/15 14:30:39;;;;;;;0.75;0.75;;;;;;;;;;5090007;28;20058;-72
2023/07/15 14:33:04;;;;;;;4.03;1.25;;;;;;;;;;5090238;28;20410;-72
2023/07/15 14:35:30;;;;;;;1.27;1.17;;;;;;;;;;5071668;28;20039;-71
2023/07/15 14:37:55;;;;;;;0.40;0.40;;;;;;;;;;5089582;28;20538;-71